sensor_id;sensor_type;location;lat;lon;timestamp;P1;durP1;ratioP1;P2;durP2;ratioP2
52866;SDS011;38739;53.324;6.862;2024-01-30T00:01:49;36.08;;;24.92;;
52866;SDS011;38739;53.324;6.862;2024-01-30T00:04:15;31.92;;;23.08;;
52866;SDS011;38739;53.324;6.862;2024-01-30T00:06:42;35.28;;;24.33;;
52866;SDS011;38739;53.324;6.862;2024-01-30T00:09:08;35.30;;;23.95;;
52866;SDS011;38739;53.324;6.862;2024-01-30T00:11:35;39.20;;;24.42;;
52866;SDS011;38739;53.324;6.862;2024-01-30T00:14:04;33.95;;;24.35;;
52866;SDS011;38739;53.324;6.862;2024-01-30T00:16:30;33.33;;;23.63;;
52866;SDS011;38739;53.324;6.862;2024-01-30T00:18:56;34.17;;;25.02;;
52866;SDS011;38739;53.324;6.862;2024-01-30T00:21:22;36.45;;;24.05;;
52866;SDS011;38739;53.324;6.862;2024-01-30T00:23:48;37.25;;;24.73;;
52866;SDS011;38739;53.324;6.862;2024-01-30T00:26:14;37.05;;;23.60;;
52866;SDS011;38739;53.324;6.862;2024-01-30T00:28:41;38.15;;;24.65;;
52866;SDS011;38739;53.324;6.862;2024-01-30T00:31:07;39.10;;;24.23;;
52866;SDS011;38739;53.324;6.862;2024-01-30T00:33:37;35.95;;;24.05;;
52866;SDS011;38739;53.324;6.862;2024-01-30T00:36:03;37.13;;;25.45;;
52866;SDS011;38739;53.324;6.862;2024-01-30T00:38:29;36.83;;;25.20;;
52866;SDS011;38739;53.324;6.862;2024-01-30T00:40:55;36.58;;;23.88;;
52866;SDS011;38739;53.324;6.862;2024-01-30T00:43:21;36.75;;;25.20;;
52866;SDS011;38739;53.324;6.862;2024-01-30T00:45:46;39.00;;;25.77;;
52866;SDS011;38739;53.324;6.862;2024-01-30T00:48:12;38.30;;;25.27;;
52866;SDS011;38739;53.324;6.862;2024-01-30T00:50:38;34.88;;;24.05;;
52866;SDS011;38739;53.324;6.862;2024-01-30T00:53:03;37.10;;;25.42;;
52866;SDS011;38739;53.324;6.862;2024-01-30T00:55:29;39.67;;;26.58;;
52866;SDS011;38739;53.324;6.862;2024-01-30T00:57:55;41.35;;;24.67;;
52866;SDS011;38739;53.324;6.862;2024-01-30T01:00:21;36.88;;;24.70;;
52866;SDS011;38739;53.324;6.862;2024-01-30T01:02:48;38.30;;;25.23;;
52866;SDS011;38739;53.324;6.862;2024-01-30T01:05:14;39.53;;;25.73;;
52866;SDS011;38739;53.324;6.862;2024-01-30T01:07:39;37.65;;;25.63;;
52866;SDS011;38739;53.324;6.862;2024-01-30T01:10:07;38.50;;;25.83;;
52866;SDS011;38739;53.324;6.862;2024-01-30T01:12:33;37.22;;;24.90;;
52866;SDS011;38739;53.324;6.862;2024-01-30T01:14:59;40.67;;;26.50;;
52866;SDS011;38739;53.324;6.862;2024-01-30T01:17:24;37.13;;;26.23;;
52866;SDS011;38739;53.324;6.862;2024-01-30T01:19:50;39.85;;;26.40;;
52866;SDS011;38739;53.324;6.862;2024-01-30T01:22:16;43.60;;;27.27;;
52866;SDS011;38739;53.324;6.862;2024-01-30T01:24:43;39.15;;;26.48;;
52866;SDS011;38739;53.324;6.862;2024-01-30T01:27:09;39.83;;;27.02;;
52866;SDS011;38739;53.324;6.862;2024-01-30T01:29:34;38.88;;;27.10;;
52866;SDS011;38739;53.324;6.862;2024-01-30T01:32:00;39.88;;;26.60;;
52866;SDS011;38739;53.324;6.862;2024-01-30T01:34:26;39.78;;;27.08;;
52866;SDS011;38739;53.324;6.862;2024-01-30T01:36:51;42.38;;;28.30;;
52866;SDS011;38739;53.324;6.862;2024-01-30T01:39:20;46.78;;;29.85;;
52866;SDS011;38739;53.324;6.862;2024-01-30T01:41:47;49.97;;;31.73;;
52866;SDS011;38739;53.324;6.862;2024-01-30T01:44:13;48.47;;;32.42;;
52866;SDS011;38739;53.324;6.862;2024-01-30T01:46:39;53.13;;;32.58;;
52866;SDS011;38739;53.324;6.862;2024-01-30T01:49:05;51.50;;;32.67;;
52866;SDS011;38739;53.324;6.862;2024-01-30T01:51:33;50.47;;;32.08;;
52866;SDS011;38739;53.324;6.862;2024-01-30T01:54:04;49.28;;;31.85;;
52866;SDS011;38739;53.324;6.862;2024-01-30T01:56:31;47.53;;;31.33;;
52866;SDS011;38739;53.324;6.862;2024-01-30T01:58:59;49.90;;;30.75;;
52866;SDS011;38739;53.324;6.862;2024-01-30T02:01:29;45.80;;;30.17;;
52866;SDS011;38739;53.324;6.862;2024-01-30T02:03:57;46.58;;;29.77;;
52866;SDS011;38739;53.324;6.862;2024-01-30T02:06:24;52.67;;;30.83;;
52866;SDS011;38739;53.324;6.862;2024-01-30T02:08:49;50.47;;;30.40;;
52866;SDS011;38739;53.324;6.862;2024-01-30T02:11:15;48.25;;;29.58;;
52866;SDS011;38739;53.324;6.862;2024-01-30T02:13:41;48.83;;;29.73;;
52866;SDS011;38739;53.324;6.862;2024-01-30T02:16:07;49.58;;;29.17;;
52866;SDS011;38739;53.324;6.862;2024-01-30T02:18:33;44.92;;;29.52;;
52866;SDS011;38739;53.324;6.862;2024-01-30T02:20:59;49.17;;;30.75;;
52866;SDS011;38739;53.324;6.862;2024-01-30T02:23:29;45.60;;;28.88;;
52866;SDS011;38739;53.324;6.862;2024-01-30T02:25:58;47.75;;;30.70;;
52866;SDS011;38739;53.324;6.862;2024-01-30T02:28:23;46.70;;;29.52;;
52866;SDS011;38739;53.324;6.862;2024-01-30T02:30:49;48.00;;;31.38;;
52866;SDS011;38739;53.324;6.862;2024-01-30T02:33:15;45.03;;;30.15;;
52866;SDS011;38739;53.324;6.862;2024-01-30T02:35:41;44.60;;;28.85;;
52866;SDS011;38739;53.324;6.862;2024-01-30T02:38:06;46.50;;;30.23;;
52866;SDS011;38739;53.324;6.862;2024-01-30T02:40:32;44.33;;;29.10;;
52866;SDS011;38739;53.324;6.862;2024-01-30T02:42:58;43.03;;;29.17;;
52866;SDS011;38739;53.324;6.862;2024-01-30T02:45:25;47.10;;;29.45;;
52866;SDS011;38739;53.324;6.862;2024-01-30T02:47:51;47.45;;;29.77;;
52866;SDS011;38739;53.324;6.862;2024-01-30T02:50:16;40.83;;;27.77;;
52866;SDS011;38739;53.324;6.862;2024-01-30T02:52:42;43.85;;;29.00;;
52866;SDS011;38739;53.324;6.862;2024-01-30T02:55:11;44.90;;;28.65;;
52866;SDS011;38739;53.324;6.862;2024-01-30T02:57:37;48.95;;;28.05;;
52866;SDS011;38739;53.324;6.862;2024-01-30T03:00:03;42.83;;;28.05;;
52866;SDS011;38739;53.324;6.862;2024-01-30T03:02:31;41.17;;;27.63;;
52866;SDS011;38739;53.324;6.862;2024-01-30T03:04:57;44.80;;;27.30;;
52866;SDS011;38739;53.324;6.862;2024-01-30T03:07:24;42.70;;;27.48;;
52866;SDS011;38739;53.324;6.862;2024-01-30T03:09:50;43.75;;;26.83;;
52866;SDS011;38739;53.324;6.862;2024-01-30T03:12:15;40.08;;;27.10;;
52866;SDS011;38739;53.324;6.862;2024-01-30T03:14:41;44.00;;;27.02;;
52866;SDS011;38739;53.324;6.862;2024-01-30T03:17:07;40.15;;;26.83;;
52866;SDS011;38739;53.324;6.862;2024-01-30T03:19:33;38.55;;;25.67;;
52866;SDS011;38739;53.324;6.862;2024-01-30T03:21:58;41.03;;;26.42;;
52866;SDS011;38739;53.324;6.862;2024-01-30T03:24:25;39.50;;;25.35;;
52866;SDS011;38739;53.324;6.862;2024-01-30T03:26:50;42.47;;;26.05;;
52866;SDS011;38739;53.324;6.862;2024-01-30T03:29:16;44.60;;;26.70;;
52866;SDS011;38739;53.324;6.862;2024-01-30T03:31:42;42.80;;;26.92;;
52866;SDS011;38739;53.324;6.862;2024-01-30T03:34:08;49.53;;;27.25;;
52866;SDS011;38739;53.324;6.862;2024-01-30T03:36:33;40.35;;;25.65;;
52866;SDS011;38739;53.324;6.862;2024-01-30T03:38:59;38.97;;;25.70;;
52866;SDS011;38739;53.324;6.862;2024-01-30T03:41:26;40.65;;;26.55;;
52866;SDS011;38739;53.324;6.862;2024-01-30T03:43:52;46.33;;;26.90;;
52866;SDS011;38739;53.324;6.862;2024-01-30T03:46:17;41.50;;;25.88;;
52866;SDS011;38739;53.324;6.862;2024-01-30T03:48:44;36.10;;;25.10;;
52866;SDS011;38739;53.324;6.862;2024-01-30T03:51:10;37.30;;;25.63;;
52866;SDS011;38739;53.324;6.862;2024-01-30T03:53:39;38.95;;;25.88;;
52866;SDS011;38739;53.324;6.862;2024-01-30T03:56:06;41.20;;;25.40;;
52866;SDS011;38739;53.324;6.862;2024-01-30T03:58:32;36.78;;;24.60;;
52866;SDS011;38739;53.324;6.862;2024-01-30T04:00:58;36.47;;;24.60;;
52866;SDS011;38739;53.324;6.862;2024-01-30T04:03:23;35.92;;;24.40;;
52866;SDS011;38739;53.324;6.862;2024-01-30T04:05:49;37.05;;;25.67;;
52866;SDS011;38739;53.324;6.862;2024-01-30T04:08:16;37.08;;;24.73;;
52866;SDS011;38739;53.324;6.862;2024-01-30T04:10:42;37.45;;;24.27;;
52866;SDS011;38739;53.324;6.862;2024-01-30T04:13:08;35.65;;;24.20;;
52866;SDS011;38739;53.324;6.862;2024-01-30T04:15:34;35.80;;;24.35;;
52866;SDS011;38739;53.324;6.862;2024-01-30T04:18:01;38.75;;;24.25;;
52866;SDS011;38739;53.324;6.862;2024-01-30T04:20:26;36.10;;;24.38;;
52866;SDS011;38739;53.324;6.862;2024-01-30T04:22:52;40.97;;;23.42;;
52866;SDS011;38739;53.324;6.862;2024-01-30T04:25:18;32.08;;;23.52;;
52866;SDS011;38739;53.324;6.862;2024-01-30T04:27:44;36.85;;;24.08;;
52866;SDS011;38739;53.324;6.862;2024-01-30T04:30:10;35.33;;;23.52;;
52866;SDS011;38739;53.324;6.862;2024-01-30T04:32:36;33.60;;;23.77;;
52866;SDS011;38739;53.324;6.862;2024-01-30T04:35:02;34.38;;;23.67;;
52866;SDS011;38739;53.324;6.862;2024-01-30T04:37:29;33.03;;;23.40;;
52866;SDS011;38739;53.324;6.862;2024-01-30T04:39:54;34.42;;;23.85;;
52866;SDS011;38739;53.324;6.862;2024-01-30T04:42:20;36.78;;;24.83;;
52866;SDS011;38739;53.324;6.862;2024-01-30T04:44:46;39.80;;;23.88;;
52866;SDS011;38739;53.324;6.862;2024-01-30T04:47:11;30.98;;;22.63;;
52866;SDS011;38739;53.324;6.862;2024-01-30T04:49:38;35.38;;;22.85;;
52866;SDS011;38739;53.324;6.862;2024-01-30T04:52:07;33.55;;;22.80;;
52866;SDS011;38739;53.324;6.862;2024-01-30T04:54:36;34.53;;;22.80;;
52866;SDS011;38739;53.324;6.862;2024-01-30T04:57:02;32.80;;;22.75;;
52866;SDS011;38739;53.324;6.862;2024-01-30T04:59:28;36.50;;;22.73;;
52866;SDS011;38739;53.324;6.862;2024-01-30T05:01:54;31.15;;;22.58;;
52866;SDS011;38739;53.324;6.862;2024-01-30T05:04:19;34.53;;;22.88;;
52866;SDS011;38739;53.324;6.862;2024-01-30T05:06:45;34.22;;;22.60;;
52866;SDS011;38739;53.324;6.862;2024-01-30T05:09:11;34.17;;;22.42;;
52866;SDS011;38739;53.324;6.862;2024-01-30T05:11:40;31.23;;;21.42;;
52866;SDS011;38739;53.324;6.862;2024-01-30T05:14:07;31.50;;;21.33;;
52866;SDS011;38739;53.324;6.862;2024-01-30T05:16:34;34.45;;;20.80;;
52866;SDS011;38739;53.324;6.862;2024-01-30T05:18:59;31.98;;;21.85;;
52866;SDS011;38739;53.324;6.862;2024-01-30T05:21:25;34.85;;;21.45;;
52866;SDS011;38739;53.324;6.862;2024-01-30T05:23:51;29.73;;;20.60;;
52866;SDS011;38739;53.324;6.862;2024-01-30T05:26:17;32.53;;;21.33;;
52866;SDS011;38739;53.324;6.862;2024-01-30T05:28:43;29.58;;;20.48;;
52866;SDS011;38739;53.324;6.862;2024-01-30T05:31:13;31.60;;;20.63;;
52866;SDS011;38739;53.324;6.862;2024-01-30T05:33:39;30.90;;;20.45;;
52866;SDS011;38739;53.324;6.862;2024-01-30T05:36:05;29.75;;;20.25;;
52866;SDS011;38739;53.324;6.862;2024-01-30T05:38:31;34.42;;;20.48;;
52866;SDS011;38739;53.324;6.862;2024-01-30T05:40:57;29.63;;;20.27;;
52866;SDS011;38739;53.324;6.862;2024-01-30T05:43:23;29.45;;;19.30;;
52866;SDS011;38739;53.324;6.862;2024-01-30T05:45:49;27.40;;;19.63;;
52866;SDS011;38739;53.324;6.862;2024-01-30T05:48:16;30.17;;;18.98;;
52866;SDS011;38739;53.324;6.862;2024-01-30T05:50:41;30.20;;;19.05;;
52866;SDS011;38739;53.324;6.862;2024-01-30T05:53:07;29.17;;;19.50;;
52866;SDS011;38739;53.324;6.862;2024-01-30T05:55:33;29.88;;;19.73;;
52866;SDS011;38739;53.324;6.862;2024-01-30T05:57:58;28.88;;;19.52;;
52866;SDS011;38739;53.324;6.862;2024-01-30T06:00:24;28.60;;;19.02;;
52866;SDS011;38739;53.324;6.862;2024-01-30T06:02:50;29.67;;;19.45;;
52866;SDS011;38739;53.324;6.862;2024-01-30T06:05:15;26.13;;;19.02;;
52866;SDS011;38739;53.324;6.862;2024-01-30T06:07:41;27.40;;;19.60;;
52866;SDS011;38739;53.324;6.862;2024-01-30T06:10:07;28.02;;;18.92;;
52866;SDS011;38739;53.324;6.862;2024-01-30T06:12:34;26.40;;;18.63;;
52866;SDS011;38739;53.324;6.862;2024-01-30T06:15:00;33.83;;;19.48;;
52866;SDS011;38739;53.324;6.862;2024-01-30T06:17:26;30.65;;;18.85;;
52866;SDS011;38739;53.324;6.862;2024-01-30T06:19:52;27.17;;;18.88;;
52866;SDS011;38739;53.324;6.862;2024-01-30T06:22:17;25.25;;;18.52;;
52866;SDS011;38739;53.324;6.862;2024-01-30T06:24:43;27.92;;;19.38;;
52866;SDS011;38739;53.324;6.862;2024-01-30T06:27:10;27.88;;;19.08;;
52866;SDS011;38739;53.324;6.862;2024-01-30T06:29:36;26.50;;;18.50;;
52866;SDS011;38739;53.324;6.862;2024-01-30T06:32:01;26.17;;;18.95;;
52866;SDS011;38739;53.324;6.862;2024-01-30T06:34:27;25.40;;;17.80;;
52866;SDS011;38739;53.324;6.862;2024-01-30T06:36:53;28.45;;;19.15;;
52866;SDS011;38739;53.324;6.862;2024-01-30T06:39:18;26.52;;;18.92;;
52866;SDS011;38739;53.324;6.862;2024-01-30T06:41:44;27.40;;;18.40;;
52866;SDS011;38739;53.324;6.862;2024-01-30T06:44:11;26.38;;;18.75;;
52866;SDS011;38739;53.324;6.862;2024-01-30T06:46:38;27.17;;;18.88;;
52866;SDS011;38739;53.324;6.862;2024-01-30T06:49:03;26.20;;;18.10;;
52866;SDS011;38739;53.324;6.862;2024-01-30T06:51:30;24.38;;;18.10;;
52866;SDS011;38739;53.324;6.862;2024-01-30T06:53:55;27.63;;;17.98;;
52866;SDS011;38739;53.324;6.862;2024-01-30T06:56:21;25.92;;;18.65;;
52866;SDS011;38739;53.324;6.862;2024-01-30T06:58:50;26.27;;;17.95;;
52866;SDS011;38739;53.324;6.862;2024-01-30T07:01:16;28.02;;;18.48;;
52866;SDS011;38739;53.324;6.862;2024-01-30T07:03:42;29.80;;;18.77;;
52866;SDS011;38739;53.324;6.862;2024-01-30T07:06:08;27.70;;;18.63;;
52866;SDS011;38739;53.324;6.862;2024-01-30T07:08:36;26.48;;;18.50;;
52866;SDS011;38739;53.324;6.862;2024-01-30T07:11:04;27.05;;;18.60;;
52866;SDS011;38739;53.324;6.862;2024-01-30T07:13:30;30.00;;;18.38;;
52866;SDS011;38739;53.324;6.862;2024-01-30T07:15:56;26.95;;;17.20;;
52866;SDS011;38739;53.324;6.862;2024-01-30T07:18:22;27.27;;;17.92;;
52866;SDS011;38739;53.324;6.862;2024-01-30T07:20:47;25.25;;;17.52;;
52866;SDS011;38739;53.324;6.862;2024-01-30T07:23:14;26.80;;;18.02;;
52866;SDS011;38739;53.324;6.862;2024-01-30T07:25:42;27.25;;;18.23;;
52866;SDS011;38739;53.324;6.862;2024-01-30T07:28:09;27.60;;;17.95;;
52866;SDS011;38739;53.324;6.862;2024-01-30T07:30:36;27.88;;;17.80;;
52866;SDS011;38739;53.324;6.862;2024-01-30T07:33:02;27.15;;;18.40;;
52866;SDS011;38739;53.324;6.862;2024-01-30T07:35:28;25.23;;;17.75;;
52866;SDS011;38739;53.324;6.862;2024-01-30T07:37:53;25.77;;;17.52;;
52866;SDS011;38739;53.324;6.862;2024-01-30T07:40:19;26.45;;;18.48;;
52866;SDS011;38739;53.324;6.862;2024-01-30T07:42:45;26.67;;;17.73;;
52866;SDS011;38739;53.324;6.862;2024-01-30T07:45:11;24.95;;;17.77;;
52866;SDS011;38739;53.324;6.862;2024-01-30T07:47:36;28.40;;;19.23;;
52866;SDS011;38739;53.324;6.862;2024-01-30T07:50:02;30.60;;;18.17;;
52866;SDS011;38739;53.324;6.862;2024-01-30T07:52:28;29.50;;;18.20;;
52866;SDS011;38739;53.324;6.862;2024-01-30T07:54:54;26.95;;;17.75;;
52866;SDS011;38739;53.324;6.862;2024-01-30T07:57:20;25.48;;;18.30;;
52866;SDS011;38739;53.324;6.862;2024-01-30T07:59:46;26.40;;;18.42;;
52866;SDS011;38739;53.324;6.862;2024-01-30T08:02:12;24.33;;;18.10;;
52866;SDS011;38739;53.324;6.862;2024-01-30T08:04:38;28.55;;;18.45;;
52866;SDS011;38739;53.324;6.862;2024-01-30T08:07:04;26.02;;;17.63;;
52866;SDS011;38739;53.324;6.862;2024-01-30T08:09:30;24.90;;;17.80;;
52866;SDS011;38739;53.324;6.862;2024-01-30T08:11:55;26.73;;;17.48;;
52866;SDS011;38739;53.324;6.862;2024-01-30T08:14:21;29.17;;;17.60;;
52866;SDS011;38739;53.324;6.862;2024-01-30T08:16:47;25.15;;;17.67;;
52866;SDS011;38739;53.324;6.862;2024-01-30T08:19:14;25.30;;;16.95;;
52866;SDS011;38739;53.324;6.862;2024-01-30T08:21:40;26.38;;;16.92;;
52866;SDS011;38739;53.324;6.862;2024-01-30T08:24:06;27.45;;;17.95;;
52866;SDS011;38739;53.324;6.862;2024-01-30T08:26:32;27.75;;;18.45;;
52866;SDS011;38739;53.324;6.862;2024-01-30T08:28:58;25.27;;;17.95;;
52866;SDS011;38739;53.324;6.862;2024-01-30T08:31:24;24.70;;;17.50;;
52866;SDS011;38739;53.324;6.862;2024-01-30T08:33:50;26.27;;;17.63;;
52866;SDS011;38739;53.324;6.862;2024-01-30T08:36:16;27.83;;;18.58;;
52866;SDS011;38739;53.324;6.862;2024-01-30T08:38:42;26.27;;;17.50;;
52866;SDS011;38739;53.324;6.862;2024-01-30T08:41:08;25.80;;;18.10;;
52866;SDS011;38739;53.324;6.862;2024-01-30T08:43:34;24.60;;;17.95;;
52866;SDS011;38739;53.324;6.862;2024-01-30T08:46:00;28.58;;;18.08;;
52866;SDS011;38739;53.324;6.862;2024-01-30T08:48:26;28.33;;;17.38;;
52866;SDS011;38739;53.324;6.862;2024-01-30T08:50:52;27.17;;;17.73;;
52866;SDS011;38739;53.324;6.862;2024-01-30T08:53:18;26.73;;;17.63;;
52866;SDS011;38739;53.324;6.862;2024-01-30T08:55:44;27.80;;;16.92;;
52866;SDS011;38739;53.324;6.862;2024-01-30T08:58:10;25.92;;;17.42;;
52866;SDS011;38739;53.324;6.862;2024-01-30T09:00:35;24.02;;;17.73;;
52866;SDS011;38739;53.324;6.862;2024-01-30T09:03:01;25.80;;;16.85;;
52866;SDS011;38739;53.324;6.862;2024-01-30T09:05:30;25.35;;;16.52;;
52866;SDS011;38739;53.324;6.862;2024-01-30T09:07:56;24.17;;;16.20;;
52866;SDS011;38739;53.324;6.862;2024-01-30T09:10:22;23.92;;;16.33;;
52866;SDS011;38739;53.324;6.862;2024-01-30T09:12:47;29.05;;;16.95;;
52866;SDS011;38739;53.324;6.862;2024-01-30T09:15:14;24.85;;;16.70;;
52866;SDS011;38739;53.324;6.862;2024-01-30T09:17:40;26.33;;;17.63;;
52866;SDS011;38739;53.324;6.862;2024-01-30T09:20:06;25.85;;;16.50;;
52866;SDS011;38739;53.324;6.862;2024-01-30T09:22:32;20.35;;;15.32;;
52866;SDS011;38739;53.324;6.862;2024-01-30T09:24:58;25.63;;;15.40;;
52866;SDS011;38739;53.324;6.862;2024-01-30T09:27:23;22.65;;;15.10;;
52866;SDS011;38739;53.324;6.862;2024-01-30T09:29:49;24.27;;;15.68;;
52866;SDS011;38739;53.324;6.862;2024-01-30T09:32:15;24.60;;;15.18;;
52866;SDS011;38739;53.324;6.862;2024-01-30T09:34:42;22.55;;;15.52;;
52866;SDS011;38739;53.324;6.862;2024-01-30T09:37:08;24.95;;;15.98;;
52866;SDS011;38739;53.324;6.862;2024-01-30T09:39:34;24.02;;;15.35;;
52866;SDS011;38739;53.324;6.862;2024-01-30T09:42:11;26.55;;;15.57;;
52866;SDS011;38739;53.324;6.862;2024-01-30T09:45:01;22.42;;;14.82;;
52866;SDS011;38739;53.324;6.862;2024-01-30T09:47:31;25.40;;;15.32;;
52866;SDS011;38739;53.324;6.862;2024-01-30T09:49:57;24.38;;;15.20;;
52866;SDS011;38739;53.324;6.862;2024-01-30T09:52:24;24.50;;;15.43;;
52866;SDS011;38739;53.324;6.862;2024-01-30T09:54:51;27.65;;;15.80;;
52866;SDS011;38739;53.324;6.862;2024-01-30T09:57:18;23.85;;;14.65;;
52866;SDS011;38739;53.324;6.862;2024-01-30T09:59:43;22.20;;;14.45;;
52866;SDS011;38739;53.324;6.862;2024-01-30T10:02:09;23.52;;;14.95;;
52866;SDS011;38739;53.324;6.862;2024-01-30T10:04:35;23.48;;;14.50;;
52866;SDS011;38739;53.324;6.862;2024-01-30T10:07:04;22.67;;;14.90;;
52866;SDS011;38739;53.324;6.862;2024-01-30T10:09:31;24.90;;;14.65;;
52866;SDS011;38739;53.324;6.862;2024-01-30T10:11:58;22.95;;;14.18;;
52866;SDS011;38739;53.324;6.862;2024-01-30T10:14:24;20.17;;;13.85;;
52866;SDS011;38739;53.324;6.862;2024-01-30T10:16:50;22.83;;;14.32;;
52866;SDS011;38739;53.324;6.862;2024-01-30T10:19:16;21.08;;;13.63;;
52866;SDS011;38739;53.324;6.862;2024-01-30T10:21:41;20.40;;;13.77;;
52866;SDS011;38739;53.324;6.862;2024-01-30T10:24:07;21.08;;;13.85;;
52866;SDS011;38739;53.324;6.862;2024-01-30T10:26:33;24.83;;;13.90;;
52866;SDS011;38739;53.324;6.862;2024-01-30T10:28:59;23.55;;;14.52;;
52866;SDS011;38739;53.324;6.862;2024-01-30T10:31:25;21.73;;;14.40;;
52866;SDS011;38739;53.324;6.862;2024-01-30T10:33:51;24.13;;;14.32;;
52866;SDS011;38739;53.324;6.862;2024-01-30T10:36:16;21.50;;;13.15;;
52866;SDS011;38739;53.324;6.862;2024-01-30T10:38:43;20.63;;;13.35;;
52866;SDS011;38739;53.324;6.862;2024-01-30T10:41:11;19.70;;;13.23;;
52866;SDS011;38739;53.324;6.862;2024-01-30T10:43:40;19.40;;;13.50;;
52866;SDS011;38739;53.324;6.862;2024-01-30T10:46:11;21.08;;;13.65;;
52866;SDS011;38739;53.324;6.862;2024-01-30T10:48:42;20.58;;;14.05;;
52866;SDS011;38739;53.324;6.862;2024-01-30T10:51:09;19.98;;;13.48;;
52866;SDS011;38739;53.324;6.862;2024-01-30T10:53:37;23.20;;;14.18;;
52866;SDS011;38739;53.324;6.862;2024-01-30T10:56:04;21.48;;;14.20;;
52866;SDS011;38739;53.324;6.862;2024-01-30T10:58:31;22.10;;;13.43;;
52866;SDS011;38739;53.324;6.862;2024-01-30T11:00:56;21.38;;;13.70;;
52866;SDS011;38739;53.324;6.862;2024-01-30T11:03:22;28.88;;;15.15;;
52866;SDS011;38739;53.324;6.862;2024-01-30T11:05:52;21.50;;;13.73;;
52866;SDS011;38739;53.324;6.862;2024-01-30T11:08:24;22.38;;;13.90;;
52866;SDS011;38739;53.324;6.862;2024-01-30T11:10:55;26.25;;;14.25;;
52866;SDS011;38739;53.324;6.862;2024-01-30T11:13:22;29.75;;;14.60;;
52866;SDS011;38739;53.324;6.862;2024-01-30T11:15:55;25.88;;;15.15;;
52866;SDS011;38739;53.324;6.862;2024-01-30T11:18:24;22.08;;;14.38;;
52866;SDS011;38739;53.324;6.862;2024-01-30T11:20:50;24.13;;;14.98;;
52866;SDS011;38739;53.324;6.862;2024-01-30T11:23:16;25.02;;;15.10;;
52866;SDS011;38739;53.324;6.862;2024-01-30T11:25:43;26.33;;;15.82;;
52866;SDS011;38739;53.324;6.862;2024-01-30T11:28:14;25.88;;;15.10;;
52866;SDS011;38739;53.324;6.862;2024-01-30T11:30:41;24.30;;;15.23;;
52866;SDS011;38739;53.324;6.862;2024-01-30T11:33:08;23.48;;;14.57;;
52866;SDS011;38739;53.324;6.862;2024-01-30T11:35:37;22.30;;;14.93;;
52866;SDS011;38739;53.324;6.862;2024-01-30T11:38:05;25.30;;;15.35;;
52866;SDS011;38739;53.324;6.862;2024-01-30T11:40:32;24.42;;;15.48;;
52866;SDS011;38739;53.324;6.862;2024-01-30T11:42:59;27.35;;;15.95;;
52866;SDS011;38739;53.324;6.862;2024-01-30T11:45:26;23.33;;;14.52;;
52866;SDS011;38739;53.324;6.862;2024-01-30T11:47:53;24.08;;;14.20;;
52866;SDS011;38739;53.324;6.862;2024-01-30T11:50:19;22.65;;;13.60;;
52866;SDS011;38739;53.324;6.862;2024-01-30T11:52:45;21.10;;;12.52;;
52866;SDS011;38739;53.324;6.862;2024-01-30T11:55:12;18.55;;;10.98;;
52866;SDS011;38739;53.324;6.862;2024-01-30T11:57:39;19.38;;;10.95;;
52866;SDS011;38739;53.324;6.862;2024-01-30T12:00:05;19.60;;;10.32;;
52866;SDS011;38739;53.324;6.862;2024-01-30T12:02:38;21.05;;;10.25;;
52866;SDS011;38739;53.324;6.862;2024-01-30T12:05:05;21.75;;;10.13;;
52866;SDS011;38739;53.324;6.862;2024-01-30T12:07:32;18.75;;;8.85;;
52866;SDS011;38739;53.324;6.862;2024-01-30T12:09:58;23.10;;;8.77;;
52866;SDS011;38739;53.324;6.862;2024-01-30T12:12:27;16.63;;;7.68;;
52866;SDS011;38739;53.324;6.862;2024-01-30T12:14:55;16.40;;;7.68;;
52866;SDS011;38739;53.324;6.862;2024-01-30T12:17:27;14.13;;;6.90;;
52866;SDS011;38739;53.324;6.862;2024-01-30T12:20:05;13.88;;;6.90;;
52866;SDS011;38739;53.324;6.862;2024-01-30T12:25:07;13.05;;;6.03;;
52866;SDS011;38739;53.324;6.862;2024-01-30T12:27:34;13.52;;;5.50;;
52866;SDS011;38739;53.324;6.862;2024-01-30T12:30:00;7.72;;;4.93;;
52866;SDS011;38739;53.324;6.862;2024-01-30T12:32:26;10.57;;;5.20;;
52866;SDS011;38739;53.324;6.862;2024-01-30T12:34:55;12.43;;;5.38;;
52866;SDS011;38739;53.324;6.862;2024-01-30T12:37:24;11.15;;;5.18;;
52866;SDS011;38739;53.324;6.862;2024-01-30T12:39:51;10.02;;;4.95;;
52866;SDS011;38739;53.324;6.862;2024-01-30T12:42:19;12.55;;;5.13;;
52866;SDS011;38739;53.324;6.862;2024-01-30T12:44:46;10.73;;;4.60;;
52866;SDS011;38739;53.324;6.862;2024-01-30T12:47:12;7.85;;;3.22;;
52866;SDS011;38739;53.324;6.862;2024-01-30T12:49:41;7.05;;;3.15;;
52866;SDS011;38739;53.324;6.862;2024-01-30T12:52:16;5.60;;;2.58;;
52866;SDS011;38739;53.324;6.862;2024-01-30T12:54:42;3.95;;;1.52;;
52866;SDS011;38739;53.324;6.862;2024-01-30T12:57:07;6.15;;;1.75;;
52866;SDS011;38739;53.324;6.862;2024-01-30T12:59:33;5.15;;;1.42;;
52866;SDS011;38739;53.324;6.862;2024-01-30T13:02:00;2.55;;;1.30;;
52866;SDS011;38739;53.324;6.862;2024-01-30T13:04:27;3.95;;;1.40;;
52866;SDS011;38739;53.324;6.862;2024-01-30T13:06:53;3.60;;;1.30;;
52866;SDS011;38739;53.324;6.862;2024-01-30T13:09:19;2.63;;;1.05;;
52866;SDS011;38739;53.324;6.862;2024-01-30T13:11:45;2.47;;;0.93;;
52866;SDS011;38739;53.324;6.862;2024-01-30T13:14:11;3.03;;;0.90;;
52866;SDS011;38739;53.324;6.862;2024-01-30T13:16:37;2.60;;;0.75;;
52866;SDS011;38739;53.324;6.862;2024-01-30T13:19:03;2.00;;;0.90;;
52866;SDS011;38739;53.324;6.862;2024-01-30T13:21:28;2.45;;;0.85;;
52866;SDS011;38739;53.324;6.862;2024-01-30T13:23:54;2.53;;;0.80;;
52866;SDS011;38739;53.324;6.862;2024-01-30T13:26:20;3.30;;;0.85;;
52866;SDS011;38739;53.324;6.862;2024-01-30T13:28:46;3.03;;;0.77;;
52866;SDS011;38739;53.324;6.862;2024-01-30T13:31:13;3.97;;;0.90;;
52866;SDS011;38739;53.324;6.862;2024-01-30T13:33:39;2.85;;;0.90;;
52866;SDS011;38739;53.324;6.862;2024-01-30T13:36:06;3.10;;;0.85;;
52866;SDS011;38739;53.324;6.862;2024-01-30T13:38:32;2.25;;;0.70;;
52866;SDS011;38739;53.324;6.862;2024-01-30T13:40:58;2.38;;;0.80;;
52866;SDS011;38739;53.324;6.862;2024-01-30T13:43:24;1.98;;;0.80;;
52866;SDS011;38739;53.324;6.862;2024-01-30T13:45:50;2.42;;;1.05;;
52866;SDS011;38739;53.324;6.862;2024-01-30T13:48:16;3.95;;;1.20;;
52866;SDS011;38739;53.324;6.862;2024-01-30T13:50:41;2.97;;;1.38;;
52866;SDS011;38739;53.324;6.862;2024-01-30T13:53:07;3.78;;;1.10;;
52866;SDS011;38739;53.324;6.862;2024-01-30T13:55:33;3.00;;;1.10;;
52866;SDS011;38739;53.324;6.862;2024-01-30T13:57:59;2.92;;;1.17;;
52866;SDS011;38739;53.324;6.862;2024-01-30T14:00:26;2.65;;;1.25;;
52866;SDS011;38739;53.324;6.862;2024-01-30T14:02:52;4.40;;;1.40;;
52866;SDS011;38739;53.324;6.862;2024-01-30T14:05:22;4.18;;;1.10;;
52866;SDS011;38739;53.324;6.862;2024-01-30T14:07:48;4.50;;;1.48;;
52866;SDS011;38739;53.324;6.862;2024-01-30T14:10:15;4.13;;;1.50;;
52866;SDS011;38739;53.324;6.862;2024-01-30T14:12:41;2.58;;;1.10;;
52866;SDS011;38739;53.324;6.862;2024-01-30T14:15:13;3.33;;;1.17;;
52866;SDS011;38739;53.324;6.862;2024-01-30T14:17:40;1.65;;;0.90;;
52866;SDS011;38739;53.324;6.862;2024-01-30T14:20:06;3.05;;;0.90;;
52866;SDS011;38739;53.324;6.862;2024-01-30T14:22:33;2.88;;;1.15;;
52866;SDS011;38739;53.324;6.862;2024-01-30T14:24:59;4.68;;;0.90;;